createdAt,value
2019-02-20T00:00:57.724Z,1012.63
2019-02-20T00:01:57.730Z,1012.61
2019-02-20T00:02:57.740Z,1012.64
2019-02-20T00:03:57.683Z,1012.71
2019-02-20T00:04:57.680Z,1012.70
2019-02-20T00:05:57.686Z,1012.70
2019-02-20T00:06:57.679Z,1012.70
2019-02-20T00:07:57.676Z,1012.69
2019-02-20T00:08:57.670Z,1012.72
2019-02-20T00:09:57.659Z,1012.75
2019-02-20T00:10:57.709Z,1012.72
2019-02-20T00:11:57.673Z,1012.73
2019-02-20T00:12:57.657Z,1012.70
2019-02-20T00:13:57.618Z,1012.71
2019-02-20T00:14:57.631Z,1012.72
2019-02-20T00:15:57.572Z,1012.71
2019-02-20T00:16:57.566Z,1012.72
2019-02-20T00:17:57.537Z,1012.69
2019-02-20T00:18:57.546Z,1012.71
2019-02-20T00:19:57.529Z,1012.73
2019-02-20T00:20:57.501Z,1012.78
2019-02-20T00:21:57.498Z,1012.68
2019-02-20T00:22:57.502Z,1012.75
2019-02-20T00:23:57.470Z,1012.79
2019-02-20T00:24:57.588Z,1012.74
2019-02-20T00:25:57.464Z,1012.79
2019-02-20T00:26:57.443Z,1012.76
2019-02-20T00:27:57.452Z,1012.78
2019-02-20T00:28:57.446Z,1012.83
2019-02-20T00:29:57.428Z,1012.78
2019-02-20T00:30:57.427Z,1012.83
2019-02-20T00:31:57.431Z,1012.77
2019-02-20T00:32:57.392Z,1012.78
2019-02-20T00:33:57.378Z,1012.81
2019-02-20T00:34:57.361Z,1012.76
2019-02-20T00:35:57.411Z,1012.76
2019-02-20T00:36:57.361Z,1012.74
2019-02-20T00:37:57.330Z,1012.76
2019-02-20T00:38:57.351Z,1012.76
2019-02-20T00:39:57.330Z,1012.73
2019-02-20T00:40:57.391Z,1012.74
2019-02-20T00:41:57.302Z,1012.78
2019-02-20T00:42:57.275Z,1012.77
2019-02-20T00:43:57.288Z,1012.85
2019-02-20T00:44:57.302Z,1012.80
2019-02-20T00:45:57.839Z,1012.81
2019-02-20T00:46:57.261Z,1012.83
2019-02-20T00:47:57.280Z,1012.84
2019-02-20T00:48:57.245Z,1012.84
2019-02-20T00:49:57.202Z,1012.82
2019-02-20T00:50:57.189Z,1012.83
2019-02-20T00:51:57.206Z,1012.82
2019-02-20T00:52:57.234Z,1012.84
2019-02-20T00:53:57.162Z,1012.84
2019-02-20T00:54:57.142Z,1012.93
2019-02-20T00:55:57.148Z,1012.89
2019-02-20T00:56:57.145Z,1012.90
2019-02-20T00:57:57.219Z,1012.91
2019-02-20T00:58:57.107Z,1012.86
2019-02-20T00:59:57.091Z,1012.87
2019-02-20T01:00:57.092Z,1012.89
2019-02-20T01:01:57.069Z,1012.91
2019-02-20T01:02:57.074Z,1012.90
2019-02-20T01:03:57.071Z,1012.95
2019-02-20T01:04:57.174Z,1012.95
2019-02-20T01:05:57.041Z,1012.97
2019-02-20T01:06:57.006Z,1012.91
2019-02-20T01:07:57.002Z,1012.99
2019-02-20T01:08:57.009Z,1013.01
2019-02-20T01:09:56.999Z,1013.01
2019-02-20T01:10:56.973Z,1013.01
2019-02-20T01:11:56.960Z,1013.01
2019-02-20T01:12:56.949Z,1013.01
2019-02-20T01:13:56.982Z,1012.96
2019-02-20T01:14:56.925Z,1012.98
2019-02-20T01:15:56.902Z,1012.99
2019-02-20T01:16:56.903Z,1012.97
2019-02-20T01:17:56.890Z,1012.96
2019-02-20T01:18:56.885Z,1012.93
2019-02-20T01:19:56.890Z,1012.91
2019-02-20T01:20:56.865Z,1012.93
2019-02-20T01:21:56.867Z,1012.92
2019-02-20T01:22:59.794Z,1012.96
2019-02-20T01:23:56.820Z,1012.92
2019-02-20T01:24:56.822Z,1012.94
2019-02-20T01:25:56.822Z,1012.91
2019-02-20T01:26:56.786Z,1012.91
2019-02-20T01:27:56.805Z,1012.94
2019-02-20T01:28:56.798Z,1012.91
2019-02-20T01:29:56.775Z,1012.92
2019-02-20T01:30:56.794Z,1012.89
2019-02-20T01:31:56.743Z,1012.86
2019-02-20T01:32:56.763Z,1012.90
2019-02-20T01:33:56.742Z,1012.87
2019-02-20T01:34:56.744Z,1012.88
2019-02-20T01:35:56.772Z,1012.87
2019-02-20T01:36:56.718Z,1012.86
2019-02-20T01:37:56.702Z,1012.84
2019-02-20T01:38:56.716Z,1012.85
2019-02-20T01:39:56.666Z,1012.85
2019-02-20T01:40:56.658Z,1012.84
2019-02-20T01:41:56.692Z,1012.84
2019-02-20T01:42:56.656Z,1012.90
2019-02-20T01:43:56.617Z,1012.89
2019-02-20T01:44:56.634Z,1012.91
2019-02-20T01:45:56.599Z,1012.90
2019-02-20T01:46:56.610Z,1012.91
2019-02-20T01:47:56.601Z,1012.88
2019-02-20T01:48:56.563Z,1012.92
2019-02-20T01:49:56.596Z,1012.90
2019-02-20T01:50:56.546Z,1012.91
2019-02-20T01:51:56.532Z,1012.90
2019-02-20T01:52:56.531Z,1012.91
2019-02-20T01:53:56.531Z,1012.89
2019-02-20T01:54:56.501Z,1012.89
2019-02-20T01:55:56.515Z,1012.88
2019-02-20T01:56:57.294Z,1012.89
2019-02-20T01:57:56.540Z,1012.85
2019-02-20T01:58:56.450Z,1012.85
2019-02-20T01:59:56.448Z,1012.87
2019-02-20T02:00:56.451Z,1012.85
2019-02-20T02:01:56.443Z,1012.84
2019-02-20T02:02:56.415Z,1012.84
2019-02-20T02:03:56.429Z,1012.87
2019-02-20T02:04:56.423Z,1012.84
2019-02-20T02:05:56.388Z,1012.80
2019-02-20T02:06:56.388Z,1012.84
2019-02-20T02:07:56.369Z,1012.82
2019-02-20T02:08:56.393Z,1012.83
2019-02-20T02:09:56.346Z,1012.85
2019-02-20T02:10:56.353Z,1012.85
2019-02-20T02:11:56.346Z,1012.85
2019-02-20T02:12:56.340Z,1012.86
2019-02-20T02:13:56.308Z,1012.88
2019-02-20T02:14:56.391Z,1012.87
2019-02-20T02:15:56.271Z,1012.86
2019-02-20T02:16:56.269Z,1012.82
2019-02-20T02:17:56.289Z,1012.81
2019-02-20T02:18:56.258Z,1012.81
2019-02-20T02:19:56.240Z,1012.80
2019-02-20T02:20:56.211Z,1012.86
2019-02-20T02:21:56.205Z,1012.85
2019-02-20T02:22:56.191Z,1012.86
2019-02-20T02:23:56.184Z,1012.88
2019-02-20T02:24:56.217Z,1012.84
2019-02-20T02:25:56.159Z,1012.87
2019-02-20T02:26:56.147Z,1012.90
2019-02-20T02:27:56.133Z,1012.93
2019-02-20T02:28:56.127Z,1012.93
2019-02-20T02:29:56.129Z,1012.95
2019-02-20T02:30:56.135Z,1012.95
2019-02-20T02:31:56.127Z,1012.96
2019-02-20T02:32:57.371Z,1012.94
2019-02-20T02:33:56.083Z,1012.96
2019-02-20T02:34:56.072Z,1012.95
2019-02-20T02:35:56.118Z,1012.99
2019-02-20T02:36:56.061Z,1012.96
2019-02-20T02:37:56.101Z,1012.95
2019-02-20T02:38:56.034Z,1012.93
2019-02-20T02:39:56.062Z,1012.90
2019-02-20T02:40:56.018Z,1012.93
2019-02-20T02:41:56.012Z,1012.92
2019-02-20T02:42:56.010Z,1012.92
2019-02-20T02:43:56.014Z,1012.90
2019-02-20T02:44:55.971Z,1012.98
2019-02-20T02:45:55.964Z,1012.94
2019-02-20T02:46:55.998Z,1012.95
2019-02-20T02:47:55.937Z,1012.95
2019-02-20T02:48:55.936Z,1012.99
2019-02-20T02:49:55.986Z,1012.95
2019-02-20T02:50:55.924Z,1012.98
2019-02-20T02:51:55.899Z,1013.03
2019-02-20T02:52:55.878Z,1013.01
2019-02-20T02:53:55.901Z,1013.02
2019-02-20T02:54:55.863Z,1013.01
2019-02-20T02:55:55.887Z,1013.02
2019-02-20T02:56:55.875Z,1013.02
2019-02-20T02:57:55.827Z,1012.99
2019-02-20T02:58:55.811Z,1013.00
2019-02-20T02:59:55.836Z,1013.02
2019-02-20T03:00:55.789Z,1013.02
2019-02-20T03:01:55.769Z,1012.99
2019-02-20T03:02:55.804Z,1013.03
2019-02-20T03:03:55.799Z,1012.98
2019-02-20T03:04:55.774Z,1012.99
2019-02-20T03:05:55.748Z,1013.01
2019-02-20T03:06:55.769Z,1013.00
2019-02-20T03:07:55.743Z,1012.96
2019-02-20T03:08:55.732Z,1013.00
2019-02-20T03:09:55.687Z,1013.02
2019-02-20T03:10:55.705Z,1012.99
2019-02-20T03:11:55.676Z,1013.00
2019-02-20T03:12:55.693Z,1013.05
2019-02-20T03:13:55.678Z,1012.99
2019-02-20T03:14:55.729Z,1013.02
2019-02-20T03:15:56.352Z,1013.08
2019-02-20T03:16:55.678Z,1013.08
2019-02-20T03:17:55.726Z,1013.08
2019-02-20T03:18:55.609Z,1013.02
2019-02-20T03:19:55.587Z,1013.11
2019-02-20T03:20:55.590Z,1013.11
2019-02-20T03:21:55.569Z,1013.15
2019-02-20T03:22:55.566Z,1013.10
2019-02-20T03:23:55.578Z,1013.15
2019-02-20T03:24:55.521Z,1013.09
2019-02-20T03:25:55.543Z,1013.15
2019-02-20T03:26:55.504Z,1013.09
2019-02-20T03:27:55.568Z,1013.15
2019-02-20T03:28:55.484Z,1013.12
2019-02-20T03:29:55.557Z,1013.12
2019-02-20T03:30:55.475Z,1013.15
2019-02-20T03:31:55.512Z,1013.14
2019-02-20T03:32:55.493Z,1013.16
2019-02-20T03:33:55.448Z,1013.13
2019-02-20T03:34:56.358Z,1013.21
2019-02-20T03:35:55.517Z,1013.20
2019-02-20T03:36:56.361Z,1013.17
2019-02-20T03:37:55.408Z,1013.24
2019-02-20T03:38:55.421Z,1013.21
2019-02-20T03:39:55.365Z,1013.20
2019-02-20T03:40:55.353Z,1013.25
2019-02-20T03:41:55.342Z,1013.23
2019-02-20T03:42:55.373Z,1013.22
2019-02-20T03:43:55.338Z,1013.25
2019-02-20T03:44:55.424Z,1013.23
2019-02-20T03:45:55.377Z,1013.23
2019-02-20T03:46:55.349Z,1013.22
2019-02-20T03:47:55.292Z,1013.21
2019-02-20T03:48:55.291Z,1013.20
2019-02-20T03:49:55.282Z,1013.21
2019-02-20T03:50:55.858Z,1013.24
2019-02-20T03:51:55.243Z,1013.28
2019-02-20T03:52:55.234Z,1013.26
2019-02-20T03:53:55.261Z,1013.31
2019-02-20T03:54:55.217Z,1013.28
2019-02-20T03:55:55.188Z,1013.28
2019-02-20T03:56:55.228Z,1013.29
2019-02-20T03:57:55.167Z,1013.32
2019-02-20T03:58:55.170Z,1013.31
2019-02-20T03:59:55.161Z,1013.24
2019-02-20T04:00:55.272Z,1013.32
2019-02-20T04:01:56.012Z,1013.26
2019-02-20T04:02:55.182Z,1013.23
2019-02-20T04:03:55.109Z,1013.20
2019-02-20T04:04:55.107Z,1013.23
2019-02-20T04:05:55.090Z,1013.26
2019-02-20T04:06:55.100Z,1013.22
2019-02-20T04:07:55.063Z,1013.26
2019-02-20T04:08:55.062Z,1013.26
2019-02-20T04:09:55.041Z,1013.27
2019-02-20T04:10:55.182Z,1013.30
2019-02-20T04:11:55.090Z,1013.30
2019-02-20T04:12:55.026Z,1013.30
2019-02-20T04:13:54.993Z,1013.27
2019-02-20T04:14:55.004Z,1013.31
2019-02-20T04:15:55.051Z,1013.30
2019-02-20T04:16:55.113Z,1013.25
2019-02-20T04:17:55.009Z,1013.26
2019-02-20T04:18:54.933Z,1013.30
2019-02-20T04:19:54.938Z,1013.31
2019-02-20T04:20:54.935Z,1013.31
2019-02-20T04:21:54.990Z,1013.35
2019-02-20T04:22:54.950Z,1013.38
2019-02-20T04:24:02.028Z,1013.38
2019-02-20T04:24:55.898Z,1013.37
2019-02-20T04:25:54.919Z,1013.34
2019-02-20T04:26:54.970Z,1013.36
2019-02-20T04:27:54.870Z,1013.35
2019-02-20T04:28:54.922Z,1013.35
2019-02-20T04:29:54.846Z,1013.29
2019-02-20T04:30:54.849Z,1013.28
2019-02-20T04:31:54.814Z,1013.27
2019-02-20T04:32:54.804Z,1013.30
2019-02-20T04:33:54.832Z,1013.25
2019-02-20T04:34:54.784Z,1013.24
2019-02-20T04:35:54.809Z,1013.28
2019-02-20T04:36:54.811Z,1013.23
2019-02-20T04:37:54.749Z,1013.30
2019-02-20T04:38:54.761Z,1013.24
2019-02-20T04:39:54.798Z,1013.26
2019-02-20T04:40:54.714Z,1013.31
2019-02-20T04:41:54.749Z,1013.28
2019-02-20T04:42:54.722Z,1013.30
2019-02-20T04:43:54.710Z,1013.30
2019-02-20T04:44:54.711Z,1013.32
2019-02-20T04:45:54.679Z,1013.36
2019-02-20T04:46:54.663Z,1013.40
2019-02-20T04:47:54.669Z,1013.41
2019-02-20T04:48:54.641Z,1013.45
2019-02-20T04:49:54.639Z,1013.40
2019-02-20T04:50:54.643Z,1013.41
2019-02-20T04:51:54.652Z,1013.42
2019-02-20T04:52:54.610Z,1013.43
2019-02-20T04:53:54.612Z,1013.43
2019-02-20T04:54:54.581Z,1013.47
2019-02-20T04:55:54.588Z,1013.42
2019-02-20T04:56:54.542Z,1013.43
2019-02-20T04:57:54.548Z,1013.41
2019-02-20T04:58:54.567Z,1013.41
2019-02-20T04:59:54.581Z,1013.37
2019-02-20T05:00:54.562Z,1013.38
2019-02-20T05:01:54.528Z,1013.39
2019-02-20T05:02:54.494Z,1013.42
2019-02-20T05:03:54.486Z,1013.36
2019-02-20T05:04:54.461Z,1013.41
2019-02-20T05:05:54.480Z,1013.44
2019-02-20T05:06:54.505Z,1013.35
2019-02-20T05:07:54.426Z,1013.32
2019-02-20T05:08:54.455Z,1013.42
2019-02-20T05:09:54.419Z,1013.39
2019-02-20T05:10:54.419Z,1013.35
2019-02-20T05:11:54.421Z,1013.39
2019-02-20T05:12:54.407Z,1013.40
2019-02-20T05:13:54.401Z,1013.42
2019-02-20T05:14:54.371Z,1013.44
2019-02-20T05:15:54.394Z,1013.43
2019-02-20T05:16:54.349Z,1013.42
2019-02-20T05:17:54.443Z,1013.40
2019-02-20T05:18:54.323Z,1013.45
2019-02-20T05:19:54.359Z,1013.39
2019-02-20T05:20:54.302Z,1013.39
2019-02-20T05:21:54.317Z,1013.38
2019-02-20T05:22:54.286Z,1013.42
2019-02-20T05:23:54.263Z,1013.39
2019-02-20T05:24:54.320Z,1013.41
2019-02-20T05:25:54.257Z,1013.38
2019-02-20T05:26:54.311Z,1013.43
2019-02-20T05:27:54.238Z,1013.46
2019-02-20T05:28:54.211Z,1013.45
2019-02-20T05:29:54.236Z,1013.46
2019-02-20T05:30:54.202Z,1013.46
2019-02-20T05:31:54.200Z,1013.44
2019-02-20T05:32:54.186Z,1013.46
2019-02-20T05:33:54.199Z,1013.40
2019-02-20T05:34:54.187Z,1013.41
2019-02-20T05:35:54.143Z,1013.39
2019-02-20T05:36:54.130Z,1013.43
2019-02-20T05:37:54.154Z,1013.41
2019-02-20T05:38:54.197Z,1013.42
2019-02-20T05:39:54.108Z,1013.49
2019-02-20T05:40:54.132Z,1013.50
2019-02-20T05:41:54.092Z,1013.49
2019-02-20T05:42:54.878Z,1013.47
2019-02-20T05:43:54.081Z,1013.49
2019-02-20T05:44:54.077Z,1013.53
2019-02-20T05:45:54.053Z,1013.52
2019-02-20T05:46:54.020Z,1013.50
2019-02-20T05:47:54.049Z,1013.54
2019-02-20T05:48:54.030Z,1013.53
2019-02-20T05:49:53.990Z,1013.54
2019-02-20T05:50:54.020Z,1013.60
2019-02-20T05:51:53.974Z,1013.66
2019-02-20T05:52:53.963Z,1013.67
2019-02-20T05:53:53.999Z,1013.66
2019-02-20T05:54:53.935Z,1013.69
2019-02-20T05:55:53.975Z,1013.67
2019-02-20T05:56:53.950Z,1013.73
2019-02-20T05:57:53.920Z,1013.65
2019-02-20T05:58:53.889Z,1013.64
2019-02-20T05:59:53.900Z,1013.67
2019-02-20T06:00:53.862Z,1013.66
2019-02-20T06:01:53.882Z,1013.66
2019-02-20T06:02:53.876Z,1013.72
2019-02-20T06:03:53.871Z,1013.72
2019-02-20T06:04:53.876Z,1013.74
2019-02-20T06:05:53.865Z,1013.72
2019-02-20T06:06:53.839Z,1013.78
2019-02-20T06:07:53.818Z,1013.72
2019-02-20T06:08:53.797Z,1013.71
2019-02-20T06:09:54.148Z,1013.75
2019-02-20T06:10:53.851Z,1013.77
2019-02-20T06:11:53.759Z,1013.74
2019-02-20T06:12:53.754Z,1013.71
2019-02-20T06:13:53.776Z,1013.78
2019-02-20T06:14:53.772Z,1013.72
2019-02-20T06:15:53.739Z,1013.75
2019-02-20T06:16:53.785Z,1013.72
2019-02-20T06:17:53.753Z,1013.75
2019-02-20T06:18:53.700Z,1013.75
2019-02-20T06:19:53.694Z,1013.76
2019-02-20T06:20:53.688Z,1013.81
2019-02-20T06:21:53.658Z,1013.79
2019-02-20T06:22:53.685Z,1013.89
2019-02-20T06:23:53.630Z,1013.91
2019-02-20T06:24:53.632Z,1013.87
2019-02-20T06:25:53.621Z,1013.84
2019-02-20T06:26:53.619Z,1013.90
2019-02-20T06:27:53.687Z,1013.90
2019-02-20T06:28:53.589Z,1013.95
2019-02-20T06:29:53.614Z,1013.94
2019-02-20T06:30:53.582Z,1013.95
2019-02-20T06:31:53.620Z,1013.96
2019-02-20T06:32:53.587Z,1014.03
2019-02-20T06:33:53.520Z,1014.02
2019-02-20T06:34:53.507Z,1014.03
2019-02-20T06:35:53.516Z,1014.00
2019-02-20T06:36:53.550Z,1014.03
2019-02-20T06:37:53.513Z,1014.04
2019-02-20T06:38:53.533Z,1014.03
2019-02-20T06:39:53.474Z,1013.98
2019-02-20T06:40:53.474Z,1013.97
2019-02-20T06:41:53.479Z,1014.02
2019-02-20T06:42:53.493Z,1014.00
2019-02-20T06:43:53.445Z,1014.05
2019-02-20T06:44:53.412Z,1014.10
2019-02-20T06:45:53.398Z,1014.12
2019-02-20T06:46:53.410Z,1014.11
2019-02-20T06:47:53.398Z,1014.10
2019-02-20T06:48:53.400Z,1014.13
2019-02-20T06:49:53.386Z,1014.08
2019-02-20T06:50:53.339Z,1014.09
2019-02-20T06:51:53.319Z,1014.12
2019-02-20T06:52:53.368Z,1014.06
2019-02-20T06:53:53.355Z,1014.12
2019-02-20T06:54:54.130Z,1014.10
2019-02-20T06:55:53.291Z,1014.09
2019-02-20T06:56:53.306Z,1014.10
2019-02-20T06:57:53.274Z,1014.15
2019-02-20T06:58:53.292Z,1014.20
2019-02-20T06:59:53.292Z,1014.18
2019-02-20T07:00:53.269Z,1014.16
2019-02-20T07:01:53.234Z,1014.21
2019-02-20T07:02:53.250Z,1014.24
2019-02-20T07:03:53.190Z,1014.24
2019-02-20T07:04:53.250Z,1014.26
2019-02-20T07:05:53.199Z,1014.22
2019-02-20T07:06:53.200Z,1014.24
2019-02-20T07:07:53.170Z,1014.21
2019-02-20T07:08:53.146Z,1014.21
2019-02-20T07:09:53.193Z,1014.28
2019-02-20T07:10:53.142Z,1014.30
2019-02-20T07:11:53.144Z,1014.29
2019-02-20T07:12:53.116Z,1014.27
2019-02-20T07:13:53.093Z,1014.30
2019-02-20T07:14:53.974Z,1014.35
2019-02-20T07:15:53.102Z,1014.41
2019-02-20T07:16:53.060Z,1014.43
2019-02-20T07:17:53.063Z,1014.37
2019-02-20T07:18:53.056Z,1014.40
2019-02-20T07:19:53.044Z,1014.41
2019-02-20T07:20:56.064Z,1014.40
2019-02-20T07:21:53.008Z,1014.43
2019-02-20T07:22:53.036Z,1014.47
2019-02-20T07:23:53.000Z,1014.49
2019-02-20T07:24:52.993Z,1014.48
2019-02-20T07:25:52.983Z,1014.53
2019-02-20T07:26:53.066Z,1014.48
2019-02-20T07:27:52.950Z,1014.53
2019-02-20T07:28:52.962Z,1014.56
2019-02-20T07:29:52.946Z,1014.56
2019-02-20T07:30:52.917Z,1014.60
2019-02-20T07:31:52.967Z,1014.61
2019-02-20T07:32:52.955Z,1014.64
2019-02-20T07:33:52.899Z,1014.61
2019-02-20T07:34:52.896Z,1014.63
2019-02-20T07:35:52.910Z,1014.63
2019-02-20T07:36:52.945Z,1014.66
2019-02-20T07:37:52.870Z,1014.68
2019-02-20T07:38:52.865Z,1014.64
2019-02-20T07:39:52.844Z,1014.66
2019-02-20T07:40:52.821Z,1014.66
2019-02-20T07:41:52.816Z,1014.73
2019-02-20T07:42:52.824Z,1014.74
2019-02-20T07:43:53.399Z,1014.74
2019-02-20T07:44:52.792Z,1014.76
2019-02-20T07:45:52.801Z,1014.81
2019-02-20T07:46:53.473Z,1014.82
2019-02-20T07:47:52.781Z,1014.80
2019-02-20T07:48:52.741Z,1014.84
2019-02-20T07:49:52.728Z,1014.81
2019-02-20T07:50:52.751Z,1014.78
2019-02-20T07:51:52.744Z,1014.83
2019-02-20T07:52:52.711Z,1014.81
2019-02-20T07:53:53.400Z,1014.84
2019-02-20T07:54:52.676Z,1014.92
2019-02-20T07:55:52.702Z,1014.88
2019-02-20T07:56:52.662Z,1014.92
2019-02-20T07:57:52.661Z,1014.94
2019-02-20T07:58:52.643Z,1014.98
2019-02-20T07:59:52.652Z,1014.98
2019-02-20T08:00:52.614Z,1014.95
2019-02-20T08:01:52.615Z,1014.97
2019-02-20T08:02:52.672Z,1014.95
2019-02-20T08:03:53.440Z,1015.01
2019-02-20T08:04:52.660Z,1014.96
2019-02-20T08:05:52.592Z,1015.00
2019-02-20T08:06:52.572Z,1015.02
2019-02-20T08:07:52.571Z,1015.07
2019-02-20T08:08:52.553Z,1015.04
2019-02-20T08:09:55.167Z,1015.00
2019-02-20T08:10:53.491Z,1015.04
2019-02-20T08:11:52.499Z,1015.07
2019-02-20T08:12:52.514Z,1015.04
2019-02-20T08:13:52.522Z,1015.09
2019-02-20T08:14:52.491Z,1015.11
2019-02-20T08:15:58.404Z,1015.10
2019-02-20T08:16:52.953Z,1015.12
2019-02-20T08:17:52.470Z,1015.15
2019-02-20T08:18:52.430Z,1015.13
2019-02-20T08:19:53.411Z,1015.24
2019-02-20T08:20:52.411Z,1015.15
2019-02-20T08:21:52.412Z,1015.17
2019-02-20T08:22:52.408Z,1015.19
2019-02-20T08:23:52.413Z,1015.19
2019-02-20T08:24:52.413Z,1015.17
2019-02-20T08:25:52.364Z,1015.19
2019-02-20T08:26:52.360Z,1015.21
2019-02-20T08:27:52.532Z,1015.24
2019-02-20T08:28:52.364Z,1015.28
2019-02-20T08:29:52.329Z,1015.25
2019-02-20T08:30:52.312Z,1015.23
2019-02-20T08:31:53.904Z,1015.29
2019-02-20T08:32:52.300Z,1015.28
2019-02-20T08:33:52.402Z,1015.29
2019-02-20T08:34:52.275Z,1015.36
2019-02-20T08:35:52.317Z,1015.36
2019-02-20T08:36:52.244Z,1015.32
2019-02-20T08:37:52.289Z,1015.39
2019-02-20T08:38:52.234Z,1015.29
2019-02-20T08:39:52.259Z,1015.33
2019-02-20T08:40:52.195Z,1015.35
2019-02-20T08:41:52.189Z,1015.33
2019-02-20T08:42:52.197Z,1015.44
2019-02-20T08:43:52.162Z,1015.43
2019-02-20T08:44:52.205Z,1015.39
2019-02-20T08:45:52.162Z,1015.47
2019-02-20T08:46:52.118Z,1015.44
2019-02-20T08:47:52.134Z,1015.50
2019-02-20T08:48:52.153Z,1015.49
2019-02-20T08:49:54.321Z,1015.58
2019-02-20T08:50:52.131Z,1015.59
2019-02-20T08:51:52.130Z,1015.64
2019-02-20T08:52:53.120Z,1015.61
2019-02-20T08:53:52.258Z,1015.58
2019-02-20T08:54:52.144Z,1015.59
2019-02-20T08:55:52.099Z,1015.58
2019-02-20T08:56:52.057Z,1015.62
2019-02-20T08:57:52.054Z,1015.65
2019-02-20T08:58:52.009Z,1015.63
2019-02-20T08:59:52.001Z,1015.64
2019-02-20T09:00:52.015Z,1015.66
2019-02-20T09:01:52.009Z,1015.67
2019-02-20T09:02:51.952Z,1015.65
2019-02-20T09:03:52.918Z,1015.71
2019-02-20T09:04:52.015Z,1015.77
2019-02-20T09:05:51.937Z,1015.69
2019-02-20T09:06:52.063Z,1015.74
2019-02-20T09:07:51.905Z,1015.67
2019-02-20T09:08:51.901Z,1015.74
2019-02-20T09:09:51.939Z,1015.79
2019-02-20T09:10:51.884Z,1015.84
2019-02-20T09:11:51.862Z,1015.87
2019-02-20T09:12:51.877Z,1015.82
2019-02-20T09:13:51.861Z,1015.88
2019-02-20T09:14:51.831Z,1015.89
2019-02-20T09:15:51.832Z,1015.85
2019-02-20T09:16:51.822Z,1015.90
2019-02-20T09:17:51.803Z,1015.92
2019-02-20T09:18:51.785Z,1015.85
2019-02-20T09:19:51.837Z,1015.88
2019-02-20T09:20:51.791Z,1015.91
2019-02-20T09:21:51.816Z,1015.93
2019-02-20T09:22:51.770Z,1015.94
2019-02-20T09:23:51.792Z,1015.89
2019-02-20T09:24:51.767Z,1015.87
2019-02-20T09:25:52.592Z,1015.91
2019-02-20T09:26:52.054Z,1015.86
2019-02-20T09:27:51.773Z,1015.83
2019-02-20T09:28:52.918Z,1015.87
2019-02-20T09:29:51.671Z,1015.84
2019-02-20T09:30:51.707Z,1015.86
2019-02-20T09:31:51.666Z,1015.84
2019-02-20T09:32:51.673Z,1015.84
2019-02-20T09:33:51.611Z,1015.82
2019-02-20T09:34:51.621Z,1015.80
2019-02-20T09:35:51.628Z,1015.88
2019-02-20T09:36:51.623Z,1015.88
2019-02-20T09:37:51.587Z,1015.88
2019-02-20T09:38:51.611Z,1015.90
2019-02-20T09:39:51.590Z,1015.93
2019-02-20T09:40:51.565Z,1015.90
2019-02-20T09:41:51.554Z,1015.92
2019-02-20T09:42:51.655Z,1015.94
2019-02-20T09:43:51.533Z,1015.92
2019-02-20T09:44:51.534Z,1015.92
2019-02-20T09:45:51.511Z,1015.87
2019-02-20T09:46:51.523Z,1015.90
2019-02-20T09:47:51.488Z,1015.91
2019-02-20T09:48:51.521Z,1015.91
2019-02-20T09:49:51.450Z,1015.95
2019-02-20T09:50:51.438Z,1015.99
2019-02-20T09:51:51.452Z,1015.99
2019-02-20T09:52:52.791Z,1015.99
2019-02-20T09:53:51.429Z,1016.01
2019-02-20T09:54:51.484Z,1016.00
2019-02-20T09:55:52.028Z,1016.06
2019-02-20T09:56:51.399Z,1016.06
2019-02-20T09:57:51.376Z,1016.11
2019-02-20T09:58:51.391Z,1016.07
2019-02-20T09:59:51.371Z,1016.05
2019-02-20T10:00:51.366Z,1016.00
2019-02-20T10:01:51.343Z,1016.01
2019-02-20T10:02:51.358Z,1015.92
2019-02-20T10:03:51.333Z,1015.93
2019-02-20T10:04:51.318Z,1015.94
2019-02-20T10:05:51.303Z,1015.96
2019-02-20T10:06:51.275Z,1015.99
2019-02-20T10:07:51.412Z,1015.93
2019-02-20T10:08:51.316Z,1015.94
2019-02-20T10:09:51.243Z,1015.93
2019-02-20T10:10:51.235Z,1015.96
2019-02-20T10:11:51.232Z,1016.04
2019-02-20T10:12:51.207Z,1016.01
2019-02-20T10:13:51.228Z,1016.01
2019-02-20T10:14:51.239Z,1016.02
2019-02-20T10:15:51.183Z,1016.04
2019-02-20T10:16:51.194Z,1016.08
2019-02-20T10:17:51.163Z,1016.03
2019-02-20T10:18:51.161Z,1016.04
2019-02-20T10:19:51.225Z,1016.07
2019-02-20T10:20:51.127Z,1016.12
2019-02-20T10:21:51.119Z,1016.09
2019-02-20T10:22:51.116Z,1016.12
2019-02-20T10:23:51.103Z,1016.13
2019-02-20T10:24:51.090Z,1016.13
2019-02-20T10:26:00.342Z,1016.20
2019-02-20T10:27:00.186Z,1016.20
2019-02-20T10:27:52.075Z,1016.21
2019-02-20T10:28:51.082Z,1016.23
2019-02-20T10:29:51.034Z,1016.17
2019-02-20T10:30:51.035Z,1016.20
2019-02-20T10:31:51.034Z,1016.18
2019-02-20T10:32:51.004Z,1016.24
2019-02-20T10:33:50.994Z,1016.18
2019-02-20T10:34:50.973Z,1016.24
2019-02-20T10:35:51.012Z,1016.22
2019-02-20T10:36:50.986Z,1016.22
2019-02-20T10:37:52.890Z,1016.19
2019-02-20T10:38:50.971Z,1016.22
2019-02-20T10:39:50.964Z,1016.18
2019-02-20T10:40:50.915Z,1016.19
2019-02-20T10:41:50.939Z,1016.26
2019-02-20T10:42:50.918Z,1016.22
2019-02-20T10:43:50.875Z,1016.18
2019-02-20T10:44:50.868Z,1016.17
2019-02-20T10:45:51.434Z,1016.21
2019-02-20T10:46:50.887Z,1016.23
2019-02-20T10:47:50.843Z,1016.17
2019-02-20T10:48:50.838Z,1016.20
2019-02-20T10:49:50.827Z,1016.18
2019-02-20T10:50:50.818Z,1016.23
2019-02-20T10:51:50.808Z,1016.24
2019-02-20T10:52:50.862Z,1016.23
2019-02-20T10:53:50.777Z,1016.27
2019-02-20T10:54:57.616Z,1016.24
2019-02-20T10:55:51.821Z,1016.29
2019-02-20T10:56:50.774Z,1016.24
2019-02-20T10:57:50.760Z,1016.25
2019-02-20T10:58:50.799Z,1016.25
2019-02-20T10:59:50.732Z,1016.25
2019-02-20T11:00:50.733Z,1016.25
2019-02-20T11:01:50.774Z,1016.28
2019-02-20T11:02:50.765Z,1016.22
2019-02-20T11:03:50.699Z,1016.23
2019-02-20T11:04:50.705Z,1016.25
2019-02-20T11:05:50.653Z,1016.25
2019-02-20T11:06:50.654Z,1016.21
2019-02-20T11:07:50.641Z,1016.18
2019-02-20T11:08:50.631Z,1016.17
2019-02-20T11:09:50.603Z,1016.15
2019-02-20T11:10:50.660Z,1016.15
2019-02-20T11:11:50.644Z,1016.17
2019-02-20T11:12:50.587Z,1016.22
2019-02-20T11:13:50.576Z,1016.25
2019-02-20T11:14:50.541Z,1016.29
2019-02-20T11:15:50.574Z,1016.24
2019-02-20T11:16:50.551Z,1016.28
2019-02-20T11:17:50.518Z,1016.28
2019-02-20T11:18:50.550Z,1016.27
2019-02-20T11:19:50.546Z,1016.29
2019-02-20T11:20:50.480Z,1016.29
2019-02-20T11:21:50.537Z,1016.27
2019-02-20T11:22:50.488Z,1016.23
2019-02-20T11:23:50.472Z,1016.24
2019-02-20T11:24:50.496Z,1016.23
2019-02-20T11:25:50.452Z,1016.21
2019-02-20T11:26:54.270Z,1016.20
2019-02-20T11:27:50.406Z,1016.15
2019-02-20T11:28:50.441Z,1016.16
2019-02-20T11:29:50.409Z,1016.16
2019-02-20T11:30:50.410Z,1016.17
2019-02-20T11:31:50.363Z,1016.20
2019-02-20T11:32:50.346Z,1016.15
2019-02-20T11:33:50.360Z,1016.12
2019-02-20T11:34:50.339Z,1016.13
2019-02-20T11:35:50.358Z,1016.09
2019-02-20T11:36:50.314Z,1016.10
2019-02-20T11:37:50.339Z,1016.11
2019-02-20T11:38:50.315Z,1016.12
2019-02-20T11:39:50.283Z,1016.08
2019-02-20T11:40:50.362Z,1016.11
2019-02-20T11:41:50.282Z,1016.04
2019-02-20T11:42:50.268Z,1016.13
2019-02-20T11:43:50.266Z,1016.12
2019-02-20T11:44:50.250Z,1016.09
2019-02-20T11:45:50.238Z,1016.10
2019-02-20T11:46:50.224Z,1016.11
2019-02-20T11:47:50.228Z,1016.08
2019-02-20T11:48:50.203Z,1016.06
2019-02-20T11:49:50.208Z,1016.08
2019-02-20T11:50:50.183Z,1016.06
2019-02-20T11:51:50.200Z,1016.09
2019-02-20T11:52:50.192Z,1016.07
2019-02-20T11:53:50.127Z,1016.12
2019-02-20T11:54:50.140Z,1016.10
2019-02-20T11:55:50.176Z,1016.11
2019-02-20T11:56:50.156Z,1016.08
2019-02-20T11:57:50.097Z,1016.07
2019-02-20T11:58:50.134Z,1016.04
2019-02-20T11:59:50.105Z,1016.03
2019-02-20T12:00:50.072Z,1016.10
2019-02-20T12:01:50.121Z,1016.15
2019-02-20T12:02:50.055Z,1016.12
2019-02-20T12:03:50.061Z,1016.02
2019-02-20T12:04:50.026Z,1016.04
2019-02-20T12:05:50.004Z,1016.00